createdAt,value
2022-10-05T00:02:01.251Z,95845.91
2022-10-05T00:04:45.554Z,95847.31
2022-10-05T00:07:31.457Z,95841.16
2022-10-05T00:10:17.800Z,95843.03
2022-10-05T00:13:00.760Z,95843.00
2022-10-05T00:15:45.629Z,95842.03
2022-10-05T00:18:28.725Z,95848.91
2022-10-05T00:21:20.659Z,95837.94
2022-10-05T00:24:03.628Z,95846.03
2022-10-05T00:26:46.833Z,95841.66
2022-10-05T00:29:30.042Z,95834.19
2022-10-05T00:32:14.686Z,95841.38
2022-10-05T00:34:58.742Z,95841.94
2022-10-05T00:37:42.573Z,95839.03
2022-10-05T00:40:41.796Z,95841.31
2022-10-05T00:43:42.853Z,95843.75
2022-10-05T00:46:33.867Z,95821.22
2022-10-05T00:49:30.795Z,95839.00
2022-10-05T00:52:33.626Z,95845.00
2022-10-05T00:55:26.361Z,95833.06
2022-10-05T00:58:21.128Z,95847.63
2022-10-05T01:01:10.748Z,95845.00
2022-10-05T01:04:04.990Z,95849.31
2022-10-05T01:07:00.750Z,95850.28
2022-10-05T01:09:50.384Z,95860.03
2022-10-05T01:12:42.398Z,95860.38
2022-10-05T01:15:32.637Z,95860.03
2022-10-05T01:18:22.493Z,95864.84
2022-10-05T01:21:11.796Z,95869.69
2022-10-05T01:24:37.595Z,95870.13
2022-10-05T01:27:38.062Z,95864.19
2022-10-05T01:30:23.110Z,95873.00
2022-10-05T01:33:17.727Z,95874.78
2022-10-05T01:36:08.576Z,95888.19
2022-10-05T01:38:59.094Z,95887.75
2022-10-05T01:41:50.477Z,95889.19
2022-10-05T01:44:42.229Z,95897.91
2022-10-05T01:47:38.224Z,95893.88
2022-10-05T01:50:33.068Z,95909.09
2022-10-05T01:53:29.215Z,95911.31
2022-10-05T01:56:23.136Z,95913.28
2022-10-05T01:59:18.911Z,95912.63
2022-10-05T02:02:07.680Z,95920.00
2022-10-05T02:05:01.829Z,95920.66
2022-10-05T02:07:50.500Z,95919.69
2022-10-05T02:10:38.402Z,95926.63
2022-10-05T02:13:26.624Z,95924.91
2022-10-05T02:16:16.811Z,95929.88
2022-10-05T02:19:04.770Z,95924.63
2022-10-05T02:21:53.221Z,95923.88
2022-10-05T02:24:40.798Z,95928.56
2022-10-05T02:27:28.610Z,95926.16
2022-10-05T02:30:16.386Z,95927.03
2022-10-05T02:33:03.887Z,95926.09
2022-10-05T02:35:48.403Z,95934.16
2022-10-05T02:38:41.814Z,95927.38
2022-10-05T02:41:37.594Z,95920.34
2022-10-05T02:44:29.781Z,95923.22
2022-10-05T02:47:19.650Z,95932.25
2022-10-05T02:50:13.438Z,95930.69
2022-10-05T02:53:09.354Z,95930.06
2022-10-05T02:56:05.084Z,95920.56
2022-10-05T02:58:58.574Z,95925.88
2022-10-05T03:01:48.559Z,95930.38
2022-10-05T03:04:40.653Z,95920.41
2022-10-05T03:07:28.816Z,95925.56
2022-10-05T03:10:21.124Z,95942.63
2022-10-05T03:13:10.495Z,95931.38
2022-10-05T03:16:09.418Z,95941.66
2022-10-05T03:19:06.300Z,95941.38
2022-10-05T03:21:57.274Z,95944.91
2022-10-05T03:24:51.330Z,95938.00
2022-10-05T03:27:44.781Z,95942.34
2022-10-05T03:30:32.851Z,95942.34
2022-10-05T03:33:23.610Z,95938.00
2022-10-05T03:36:16.615Z,95943.31
2022-10-05T03:39:10.694Z,95959.72
2022-10-05T03:41:59.620Z,95951.97
2022-10-05T03:44:51.602Z,95966.47
2022-10-05T03:47:41.192Z,95968.88
2022-10-05T03:50:35.068Z,95973.88
2022-10-05T03:53:21.535Z,95972.59
2022-10-05T03:56:12.566Z,95979.19
2022-10-05T03:59:01.014Z,95987.75
2022-10-05T04:01:51.019Z,95995.16
2022-10-05T04:04:39.781Z,96000.63
2022-10-05T04:07:42.860Z,96001.75
2022-10-05T04:10:28.856Z,96000.63
2022-10-05T04:13:16.675Z,95996.59
2022-10-05T04:16:04.306Z,95999.31
2022-10-05T04:18:54.987Z,96000.13
2022-10-05T04:21:42.545Z,95988.72
2022-10-05T04:24:34.256Z,95999.31
2022-10-05T04:27:20.563Z,95994.50
2022-10-05T04:30:08.238Z,96006.44
2022-10-05T04:32:55.292Z,96010.31
2022-10-05T04:36:06.354Z,96013.53
2022-10-05T04:39:00.842Z,96014.66
2022-10-05T04:41:57.038Z,96010.31
2022-10-05T04:44:59.093Z,96015.16
2022-10-05T04:48:24.848Z,96018.53
2022-10-05T04:51:26.904Z,96025.28
2022-10-05T04:54:23.563Z,96038.97
2022-10-05T04:57:12.310Z,96035.38
2022-10-05T05:00:06.277Z,96030.34
2022-10-05T05:03:12.866Z,96029.16
2022-10-05T05:06:17.039Z,96032.09
2022-10-05T05:09:19.246Z,96028.03
2022-10-05T05:12:12.532Z,96034.00
2022-10-05T05:15:18.131Z,96037.41
2022-10-05T05:18:23.871Z,96033.50
2022-10-05T05:21:17.995Z,96034.94
2022-10-05T05:24:10.621Z,96026.66
2022-10-05T05:27:06.308Z,96038.69
2022-10-05T05:30:02.980Z,96041.25
2022-10-05T05:32:59.194Z,96043.41
2022-10-05T05:36:04.864Z,96052.03
2022-10-05T05:38:56.286Z,96042.22
2022-10-05T05:41:49.650Z,96055.13
2022-10-05T05:44:38.959Z,96047.75
2022-10-05T05:47:28.338Z,96051.81
2022-10-05T05:50:28.052Z,96046.69
2022-10-05T05:53:17.018Z,96049.91
2022-10-05T05:56:07.944Z,96040.44
2022-10-05T05:58:56.999Z,96062.25
2022-10-05T06:01:45.086Z,96068.28
2022-10-05T06:04:32.876Z,96068.38
2022-10-05T06:07:20.966Z,96065.06
2022-10-05T06:10:26.483Z,96068.00
2022-10-05T06:13:17.569Z,96068.72
2022-10-05T06:16:10.056Z,96067.31
2022-10-05T06:18:57.138Z,96067.31
2022-10-05T06:21:45.613Z,96077.78
2022-10-05T06:24:33.360Z,96081.81
2022-10-05T06:27:26.650Z,96078.22
2022-10-05T06:30:13.428Z,96076.44
2022-10-05T06:33:13.138Z,96077.72
2022-10-05T06:36:13.182Z,96085.41
2022-10-05T06:39:14.062Z,96086.94
2022-10-05T06:42:17.372Z,96088.69
2022-10-05T06:45:06.082Z,96094.72
2022-10-05T06:47:56.024Z,96106.22
2022-10-05T06:50:45.927Z,96105.28
2022-10-05T06:53:35.814Z,96105.13
2022-10-05T06:56:26.746Z,96116.59
2022-10-05T06:59:15.818Z,96121.50
2022-10-05T07:02:10.377Z,96109.09
2022-10-05T07:05:12.398Z,96109.41
2022-10-05T07:08:00.165Z,96110.47
2022-10-05T07:10:57.968Z,96104.16
2022-10-05T07:13:54.577Z,96102.84
2022-10-05T07:16:48.834Z,96104.50
2022-10-05T07:19:40.236Z,96107.78
2022-10-05T07:22:47.867Z,96109.97
2022-10-05T07:25:38.364Z,96102.56
2022-10-05T07:28:32.284Z,96108.28
2022-10-05T07:31:23.143Z,96099.09
2022-10-05T07:34:10.991Z,96097.19
2022-10-05T07:37:20.334Z,96097.81
2022-10-05T07:40:11.789Z,96100.22
2022-10-05T07:43:14.529Z,96100.44
2022-10-05T07:46:08.223Z,96105.94
2022-10-05T07:49:03.937Z,96107.22
2022-10-05T07:51:49.657Z,96104.81
2022-10-05T07:54:42.149Z,96094.53
2022-10-05T07:57:33.184Z,96103.28
2022-10-05T08:00:21.421Z,96100.66
2022-10-05T08:03:12.257Z,96105.72
2022-10-05T08:05:56.242Z,96110.69
2022-10-05T08:08:47.422Z,96117.44
2022-10-05T08:11:37.807Z,96108.50
2022-10-05T08:14:29.837Z,96107.03
2022-10-05T08:17:25.735Z,96114.28
2022-10-05T08:20:30.479Z,96120.22
2022-10-05T08:23:25.243Z,96119.75
2022-10-05T08:26:18.225Z,96128.03
2022-10-05T08:29:14.125Z,96131.59
2022-10-05T08:32:02.123Z,96137.97
2022-10-05T08:34:52.679Z,96130.69
2022-10-05T08:37:41.233Z,96125.66
2022-10-05T08:41:00.142Z,96120.94
2022-10-05T08:44:23.148Z,96116.56
2022-10-05T08:47:22.723Z,96109.44
2022-10-05T08:50:28.225Z,96121.81
2022-10-05T08:53:21.990Z,96112.00
2022-10-05T08:56:30.525Z,96108.50
2022-10-05T08:59:50.373Z,96109.13
2022-10-05T09:02:51.788Z,96112.78
2022-10-05T09:06:08.487Z,96108.13
2022-10-05T09:09:19.137Z,96120.25
2022-10-05T09:12:23.491Z,96109.66
2022-10-05T09:15:28.153Z,96105.75
2022-10-05T09:18:55.886Z,96114.06
2022-10-05T09:21:45.056Z,96113.66
2022-10-05T09:24:29.984Z,96117.34
2022-10-05T09:27:17.085Z,96112.13
2022-10-05T09:30:18.564Z,96107.75
2022-10-05T09:33:42.914Z,96109.31
2022-10-05T09:36:50.323Z,96106.78
2022-10-05T09:40:35.846Z,96114.78
2022-10-05T09:44:07.391Z,96115.97
2022-10-05T09:47:13.388Z,96087.16
2022-10-05T09:50:17.629Z,96112.63
2022-10-05T09:53:25.801Z,96109.72
2022-10-05T09:56:23.267Z,96110.41
2022-10-05T09:59:38.578Z,96105.44
2022-10-05T10:02:32.106Z,96109.72
2022-10-05T10:05:32.997Z,96104.28
2022-10-05T10:08:34.144Z,96103.19
2022-10-05T10:11:38.474Z,96101.91
2022-10-05T10:14:53.873Z,96098.72
2022-10-05T10:17:56.698Z,96109.50
2022-10-05T10:20:57.377Z,96094.94
2022-10-05T10:24:00.227Z,96109.41
2022-10-05T10:27:05.777Z,96109.53
2022-10-05T10:30:19.755Z,96108.28
2022-10-05T10:33:19.366Z,96110.88
2022-10-05T10:36:13.080Z,96100.84
2022-10-05T10:39:01.698Z,96088.03
2022-10-05T10:42:22.549Z,96084.22
2022-10-05T10:45:40.183Z,96080.06
2022-10-05T10:48:58.946Z,96079.94
2022-10-05T10:52:24.776Z,96072.72
2022-10-05T10:55:31.422Z,96066.69
2022-10-05T10:58:47.060Z,96067.50
2022-10-05T11:01:36.670Z,96064.88
2022-10-05T11:04:40.300Z,96062.91
2022-10-05T11:07:46.765Z,96053.59
2022-10-05T11:10:51.101Z,96041.63
2022-10-05T11:14:02.675Z,96038.25
2022-10-05T11:17:29.416Z,96043.34
2022-10-05T11:20:40.698Z,96038.44
2022-10-05T11:23:44.507Z,96032.38
2022-10-05T11:26:48.863Z,96029.63
2022-10-05T11:29:51.507Z,96025.44
2022-10-05T11:33:02.596Z,96017.28
2022-10-05T11:36:24.092Z,96023.22
2022-10-05T11:39:36.969Z,96012.84
2022-10-05T11:42:49.686Z,96006.59
2022-10-05T11:45:49.123Z,96017.28
2022-10-05T11:49:00.440Z,96016.72
2022-10-05T11:51:57.497Z,96011.13
2022-10-05T11:55:19.363Z,96011.84
2022-10-05T11:58:07.553Z,96004.09
2022-10-05T12:00:57.955Z,96002.81
2022-10-05T12:03:56.366Z,95984.09
2022-10-05T12:06:54.796Z,95985.41
2022-10-05T12:10:05.564Z,95984.75
2022-10-05T12:13:11.731Z,95987.13
2022-10-05T12:15:59.124Z,95983.09
2022-10-05T12:18:50.252Z,95979.13
2022-10-05T12:21:38.216Z,95979.50
2022-10-05T12:24:28.251Z,95979.13
2022-10-05T12:27:16.226Z,95989.41
2022-10-05T12:30:04.879Z,95999.69
2022-10-05T12:33:02.197Z,95985.31
2022-10-05T12:35:51.062Z,95986.91
2022-10-05T12:38:38.280Z,95984.00
2022-10-05T12:41:28.658Z,95971.56
2022-10-05T12:44:20.762Z,95994.75
2022-10-05T12:47:13.683Z,95987.19
2022-10-05T12:50:05.114Z,95984.56
2022-10-05T12:53:02.933Z,95987.94
2022-10-05T12:55:54.595Z,95986.97
2022-10-05T12:58:47.261Z,95986.97
2022-10-05T13:01:38.409Z,95992.66
2022-10-05T13:04:32.323Z,96002.28
2022-10-05T13:07:42.889Z,95994.00
2022-10-05T13:10:36.269Z,95991.94
2022-10-05T13:13:38.631Z,95994.97
2022-10-05T13:16:31.953Z,95995.09
2022-10-05T13:19:30.720Z,95974.88
2022-10-05T13:22:31.339Z,95981.06
2022-10-05T13:25:27.211Z,95978.94
2022-10-05T13:28:17.200Z,95977.34
2022-10-05T13:31:06.053Z,95970.09
2022-10-05T13:33:59.376Z,95974.06
2022-10-05T13:36:52.469Z,95973.91
2022-10-05T13:39:52.099Z,95965.63
2022-10-05T13:42:40.839Z,95956.25
2022-10-05T13:45:29.857Z,95958.91
2022-10-05T13:48:24.815Z,95961.06
2022-10-05T13:51:12.978Z,95953.03
2022-10-05T13:54:04.858Z,95951.09
2022-10-05T13:56:54.002Z,95953.50
2022-10-05T13:59:44.590Z,95951.75
2022-10-05T14:02:31.536Z,95953.28
2022-10-05T14:05:20.493Z,95951.31
2022-10-05T14:08:18.365Z,95948.97
2022-10-05T14:11:21.306Z,95949.78
2022-10-05T14:14:13.937Z,95941.81
2022-10-05T14:16:58.817Z,95949.84
2022-10-05T14:19:46.324Z,95950.06
2022-10-05T14:22:29.528Z,95951.13
2022-10-05T14:25:19.620Z,95946.69
2022-10-05T14:28:05.391Z,95952.34
2022-10-05T14:30:59.472Z,95944.59
2022-10-05T14:33:43.271Z,95945.75
2022-10-05T14:36:40.206Z,95947.34
2022-10-05T14:39:26.368Z,95949.56
2022-10-05T14:42:19.089Z,95942.22
2022-10-05T14:45:14.130Z,95944.47
2022-10-05T14:48:11.100Z,95938.56
2022-10-05T14:50:56.568Z,95939.00
2022-10-05T14:53:43.423Z,95941.06
2022-10-05T14:56:42.869Z,95943.16
2022-10-05T14:59:36.606Z,95939.44
2022-10-05T15:02:42.416Z,95946.22
2022-10-05T15:05:32.585Z,95943.69
2022-10-05T15:08:39.101Z,95943.75
2022-10-05T15:11:34.538Z,95947.75
2022-10-05T15:14:21.304Z,95941.03
2022-10-05T15:17:13.610Z,95953.09
2022-10-05T15:20:06.403Z,95955.59
2022-10-05T15:22:55.529Z,95958.22
2022-10-05T15:25:46.802Z,95959.00
2022-10-05T15:28:37.975Z,95964.72
2022-10-05T15:31:28.238Z,95965.94
2022-10-05T15:34:17.671Z,95967.66
2022-10-05T15:37:10.102Z,95973.13
2022-10-05T15:39:57.572Z,95983.06
2022-10-05T15:42:43.214Z,95982.84
2022-10-05T15:45:32.378Z,95980.53
2022-10-05T15:48:21.204Z,95985.25
2022-10-05T15:51:15.311Z,95989.63
2022-10-05T15:54:22.919Z,95996.72
2022-10-05T15:57:12.546Z,96005.38
2022-10-05T16:00:02.079Z,95996.31
2022-10-05T16:02:53.249Z,96001.81
2022-10-05T16:06:02.448Z,96016.78
2022-10-05T16:08:59.888Z,96010.53
2022-10-05T16:12:02.891Z,96025.91
2022-10-05T16:14:58.290Z,96033.69
2022-10-05T16:17:59.826Z,96030.91
2022-10-05T16:20:51.456Z,96029.94
2022-10-05T16:23:45.509Z,96035.00
2022-10-05T16:26:41.093Z,96039.09
2022-10-05T16:29:34.375Z,96048.19
2022-10-05T16:32:20.348Z,96057.63
2022-10-05T16:35:18.157Z,96060.75
2022-10-05T16:38:14.862Z,96062.97
2022-10-05T16:41:04.966Z,96057.78
2022-10-05T16:43:53.795Z,96071.44
2022-10-05T16:46:44.806Z,96068.47
2022-10-05T16:49:38.335Z,96071.13
2022-10-05T16:52:24.572Z,96057.13
2022-10-05T16:55:14.139Z,96069.63
2022-10-05T16:57:58.146Z,96075.69
2022-10-05T17:00:53.093Z,96064.88
2022-10-05T17:03:51.773Z,96066.72
2022-10-05T17:07:01.794Z,96068.38
2022-10-05T17:09:59.442Z,96070.63
2022-10-05T17:12:57.822Z,96073.84
2022-10-05T17:16:00.833Z,96081.47
2022-10-05T17:19:11.257Z,96084.28
2022-10-05T17:22:00.826Z,96076.25
2022-10-05T17:24:55.801Z,96077.66
2022-10-05T17:27:53.070Z,96083.06
2022-10-05T17:30:50.460Z,96081.00
2022-10-05T17:33:34.979Z,96093.00
2022-10-05T17:36:19.921Z,96090.59
2022-10-05T17:39:16.022Z,96083.16
2022-10-05T17:42:48.578Z,96085.75
2022-10-05T17:45:54.930Z,96094.34
2022-10-05T17:49:02.447Z,96093.53
2022-10-05T17:52:21.897Z,96094.72
2022-10-05T17:55:30.599Z,96102.50
2022-10-05T17:58:54.581Z,96098.81
2022-10-05T18:01:40.756Z,96105.97
2022-10-05T18:04:44.969Z,96108.38
2022-10-05T18:07:28.711Z,96108.00
2022-10-05T18:10:28.930Z,96105.59
2022-10-05T18:13:35.216Z,96102.53
2022-10-05T18:16:51.447Z,96102.31
2022-10-05T18:19:37.686Z,96100.09
2022-10-05T18:22:30.359Z,96118.28
2022-10-05T18:25:27.264Z,96121.66
2022-10-05T18:28:26.687Z,96123.00
2022-10-05T18:31:25.865Z,96118.19
2022-10-05T18:34:27.363Z,96132.31
2022-10-05T18:37:29.662Z,96131.69
2022-10-05T18:40:27.856Z,96124.44
2022-10-05T18:43:26.607Z,96130.84
2022-10-05T18:46:31.652Z,96129.63
2022-10-05T18:49:32.795Z,96123.53
2022-10-05T18:52:26.816Z,96132.47
2022-10-05T18:55:20.214Z,96122.63
2022-10-05T18:58:17.884Z,96129.41
2022-10-05T19:01:18.751Z,96137.41
2022-10-05T19:04:15.813Z,96135.00
2022-10-05T19:07:14.233Z,96136.81
2022-10-05T19:10:09.919Z,96141.75
2022-10-05T19:13:06.813Z,96145.72
2022-10-05T19:15:59.880Z,96135.94
2022-10-05T19:18:55.427Z,96141.66
2022-10-05T19:21:47.863Z,96141.75
2022-10-05T19:24:42.606Z,96139.16
2022-10-05T19:27:36.052Z,96141.13
2022-10-05T19:30:25.182Z,96148.28
2022-10-05T19:33:26.671Z,96152.38
2022-10-05T19:36:25.600Z,96158.91
2022-10-05T19:39:12.993Z,96150.25
2022-10-05T19:42:15.464Z,96161.25
2022-10-05T19:45:11.725Z,96163.22
2022-10-05T19:48:08.589Z,96158.41
2022-10-05T19:50:55.843Z,96164.94
2022-10-05T19:53:46.006Z,96157.56
2022-10-05T19:56:33.700Z,96156.75
2022-10-05T19:59:20.778Z,96159.63
2022-10-05T20:02:05.231Z,96161.34
2022-10-05T20:04:49.627Z,96161.34
2022-10-05T20:07:34.452Z,96167.50
2022-10-05T20:10:29.076Z,96168.47
2022-10-05T20:13:20.802Z,96172.31
2022-10-05T20:16:40.100Z,96173.50
2022-10-05T20:19:50.286Z,96174.00
2022-10-05T20:22:35.362Z,96171.97
2022-10-05T20:25:32.690Z,96160.00
2022-10-05T20:28:31.737Z,96166.34
2022-10-05T20:31:17.516Z,96155.97
2022-10-05T20:34:00.752Z,96162.22
2022-10-05T20:36:46.095Z,96157.59
2022-10-05T20:39:30.561Z,96162.63
2022-10-05T20:42:14.134Z,96171.72
2022-10-05T20:44:58.058Z,96170.91
2022-10-05T20:47:42.265Z,96177.63
2022-10-05T20:50:25.330Z,96178.97
2022-10-05T20:53:12.146Z,96184.75
2022-10-05T20:56:02.478Z,96179.06
2022-10-05T20:58:45.608Z,96180.75
2022-10-05T21:01:29.970Z,96190.47
2022-10-05T21:04:13.026Z,96188.06
2022-10-05T21:06:56.046Z,96186.59
2022-10-05T21:09:42.358Z,96191.34
2022-10-05T21:12:25.459Z,96180.16
2022-10-05T21:15:10.376Z,96179.72
2022-10-05T21:17:56.011Z,96189.91
2022-10-05T21:20:38.966Z,96185.06
2022-10-05T21:23:21.999Z,96186.13
2022-10-05T21:26:07.427Z,96189.00
2022-10-05T21:28:50.586Z,96181.22
2022-10-05T21:31:33.734Z,96185.59
2022-10-05T21:34:16.840Z,96185.78
2022-10-05T21:36:59.836Z,96181.31
2022-10-05T21:39:42.861Z,96183.72
2022-10-05T21:42:27.752Z,96187.72
2022-10-05T21:45:11.554Z,96181.13
2022-10-05T21:47:54.707Z,96185.25
2022-10-05T21:50:39.258Z,96183.47
2022-10-05T21:53:26.738Z,96183.00
2022-10-05T21:56:13.917Z,96180.31
2022-10-05T21:58:59.061Z,96175.31
2022-10-05T22:01:42.090Z,96177.19
2022-10-05T22:04:25.249Z,96165.84
2022-10-05T22:07:18.480Z,96167.63
2022-10-05T22:10:01.915Z,96173.59
2022-10-05T22:12:46.885Z,96175.13
2022-10-05T22:15:32.710Z,96169.13
2022-10-05T22:18:19.058Z,96181.53
2022-10-05T22:21:02.068Z,96171.09
2022-10-05T22:23:47.043Z,96175.00
2022-10-05T22:26:30.191Z,96168.84
2022-10-05T22:29:13.379Z,96173.41
2022-10-05T22:31:58.090Z,96168.34
2022-10-05T22:34:41.140Z,96177.31
2022-10-05T22:37:24.137Z,96168.81
2022-10-05T22:40:11.218Z,96159.50
2022-10-05T22:42:54.313Z,96163.81
2022-10-05T22:45:37.412Z,96171.56
2022-10-05T22:48:22.135Z,96168.38
2022-10-05T22:51:05.279Z,96160.13
2022-10-05T22:53:48.273Z,96168.88
2022-10-05T22:56:31.265Z,96157.09
2022-10-05T22:59:14.394Z,96164.50
2022-10-05T23:01:57.514Z,96152.09
2022-10-05T23:04:42.153Z,96155.50
2022-10-05T23:07:25.177Z,96158.69
2022-10-05T23:10:10.633Z,96160.31
2022-10-05T23:13:00.829Z,96154.78
2022-10-05T23:15:44.992Z,96149.34
2022-10-05T23:18:28.320Z,96150.38
2022-10-05T23:21:12.864Z,96149.41
2022-10-05T23:23:56.009Z,96158.16
2022-10-05T23:26:39.000Z,96158.38
2022-10-05T23:29:21.999Z,96160.78
2022-10-05T23:32:05.743Z,96163.53
2022-10-05T23:34:48.753Z,96162.75
2022-10-05T23:37:33.641Z,96174.97
2022-10-05T23:40:16.716Z,96163.53
2022-10-05T23:43:00.929Z,96172.59
2022-10-05T23:45:45.434Z,96162.50
2022-10-05T23:48:29.731Z,96154.81
2022-10-05T23:51:15.599Z,96156.59
2022-10-05T23:54:00.029Z,96162.78
2022-10-05T23:56:43.250Z,96161.50
2022-10-05T23:59:26.283Z,96164.88
